createdAt,value
2018-06-15T18:05:12.100Z,11.10
2018-06-15T18:07:40.805Z,11.90
2018-06-15T18:10:09.097Z,10.60
2018-06-15T18:12:38.201Z,11.20
2018-06-15T18:15:06.813Z,10.10
2018-06-15T18:17:35.709Z,11.20
2018-06-15T18:20:04.588Z,11.17
2018-06-15T18:22:33.424Z,11.20
2018-06-15T18:25:02.021Z,11.10
2018-06-15T18:27:30.625Z,11.43
2018-06-15T18:29:59.146Z,10.57
2018-06-15T18:32:27.924Z,11.83
2018-06-15T18:34:56.830Z,11.80
2018-06-15T18:37:25.450Z,10.90
2018-06-15T18:39:54.147Z,11.37
2018-06-15T18:42:22.743Z,11.07
2018-06-15T18:44:51.299Z,11.50
2018-06-15T18:47:19.849Z,11.13
2018-06-15T18:49:48.444Z,12.10
2018-06-15T18:52:16.971Z,12.70
2018-06-15T18:54:45.533Z,13.73
2018-06-15T18:57:14.270Z,10.50
2018-06-15T18:59:43.098Z,10.80
2018-06-15T19:02:11.700Z,11.30
2018-06-15T19:04:41.558Z,10.10
2018-06-15T19:07:10.414Z,10.80
2018-06-15T19:09:39.044Z,10.40
2018-06-15T19:12:07.753Z,11.40
2018-06-15T19:14:36.488Z,10.90
2018-06-15T19:17:05.439Z,11.60
2018-06-15T19:19:35.090Z,10.80
2018-06-15T19:22:03.703Z,11.30
2018-06-15T19:24:32.372Z,11.63
2018-06-15T19:27:01.164Z,12.00
2018-06-15T19:29:29.735Z,11.50
2018-06-15T19:32:00.460Z,11.70
2018-06-15T19:34:29.252Z,11.17
2018-06-15T19:36:57.796Z,11.40
2018-06-15T19:39:26.404Z,10.20
2018-06-15T19:41:55.268Z,12.00
2018-06-15T19:44:25.257Z,11.90
2018-06-15T19:46:54.534Z,12.23
2018-06-15T19:49:23.144Z,12.57
2018-06-15T19:51:51.795Z,13.63
2018-06-15T19:54:20.567Z,13.50
2018-06-15T19:56:49.467Z,14.37
2018-06-15T19:59:18.266Z,14.23
2018-06-15T20:01:46.927Z,13.87
2018-06-15T20:04:17.087Z,15.00
2018-06-15T20:06:46.081Z,14.43
2018-06-15T20:09:14.715Z,13.50
2018-06-15T20:11:43.611Z,13.87
2018-06-15T20:14:12.189Z,13.57
2018-06-15T20:16:40.831Z,12.90
2018-06-15T20:19:09.685Z,12.90
2018-06-15T20:21:38.231Z,14.17
2018-06-15T20:24:06.833Z,16.13
2018-06-15T20:26:35.396Z,14.27
2018-06-15T20:29:04.167Z,13.23
2018-06-15T20:31:32.865Z,13.30
2018-06-15T20:34:01.482Z,12.90
2018-06-15T20:36:30.286Z,13.50
2018-06-15T20:38:59.097Z,15.30
2018-06-15T20:41:27.715Z,14.07
2018-06-15T20:43:56.381Z,14.33
2018-06-15T20:46:24.992Z,14.00
2018-06-15T20:48:53.675Z,13.83
2018-06-15T20:51:22.332Z,13.13
2018-06-15T20:53:50.872Z,13.03
2018-06-15T20:56:19.471Z,14.33
2018-06-15T20:58:48.007Z,14.37
2018-06-15T21:01:16.596Z,13.40
2018-06-15T21:03:45.248Z,14.10
2018-06-15T21:06:13.883Z,13.23
2018-06-15T21:08:42.537Z,13.23
2018-06-15T21:11:11.127Z,14.17
2018-06-15T21:13:39.763Z,13.27
2018-06-15T21:16:08.510Z,14.50
2018-06-15T21:18:37.122Z,12.90
2018-06-15T21:21:05.966Z,13.30
2018-06-15T21:23:34.686Z,12.50
2018-06-15T21:26:03.270Z,12.23
2018-06-15T21:28:31.846Z,11.60
2018-06-15T21:31:00.509Z,12.17
2018-06-15T21:33:29.190Z,10.33
2018-06-15T21:35:57.922Z,10.77
2018-06-15T21:38:26.475Z,11.50
2018-06-15T21:40:55.316Z,10.67
2018-06-15T21:43:23.904Z,10.90
2018-06-15T21:45:52.606Z,11.93
2018-06-15T21:48:21.204Z,10.60
2018-06-15T21:50:49.960Z,11.43
2018-06-15T21:53:18.601Z,10.77
2018-06-15T21:55:47.290Z,10.90
2018-06-15T21:58:15.840Z,10.97
2018-06-15T22:00:44.439Z,10.00
2018-06-15T22:03:13.050Z,10.43
2018-06-15T22:05:41.803Z,9.80
2018-06-15T22:08:10.515Z,9.93
2018-06-15T22:10:39.059Z,8.80
2018-06-15T22:13:07.751Z,10.20
2018-06-15T22:15:36.495Z,8.80
2018-06-15T22:18:05.429Z,9.50
2018-06-15T22:20:34.277Z,9.20
2018-06-15T22:23:02.970Z,9.70
2018-06-15T22:25:31.649Z,9.77
2018-06-15T22:28:00.366Z,9.37
2018-06-15T22:30:29.043Z,8.90
2018-06-15T22:32:57.591Z,10.03
2018-06-15T22:35:26.175Z,9.10
2018-06-15T22:37:54.752Z,8.70
2018-06-15T22:40:23.347Z,8.93
2018-06-15T22:42:52.031Z,9.10
2018-06-15T22:45:20.655Z,8.93
2018-06-15T22:47:49.478Z,8.53
2018-06-15T22:50:18.183Z,9.27
2018-06-15T22:52:46.770Z,8.47
2018-06-15T22:55:15.704Z,7.87
2018-06-15T22:57:44.391Z,9.20
2018-06-15T23:00:16.767Z,8.93
2018-06-15T23:02:45.547Z,9.10
2018-06-15T23:05:14.267Z,8.83
2018-06-15T23:07:43.174Z,7.57
2018-06-15T23:10:11.753Z,8.43
2018-06-15T23:12:40.354Z,9.10
2018-06-15T23:15:08.574Z,8.20
2018-06-15T23:17:37.118Z,8.80
2018-06-15T23:20:05.782Z,8.57
2018-06-15T23:22:34.474Z,8.63
2018-06-15T23:25:03.356Z,8.23
2018-06-15T23:27:32.088Z,8.37
2018-06-15T23:30:00.659Z,8.03
2018-06-15T23:32:29.373Z,8.37
2018-06-15T23:34:57.976Z,9.07
2018-06-15T23:37:26.589Z,8.90
2018-06-15T23:39:55.108Z,8.87
2018-06-15T23:42:23.756Z,8.60
2018-06-15T23:44:52.509Z,8.10
2018-06-15T23:47:21.151Z,7.20
2018-06-15T23:49:49.952Z,8.13
2018-06-15T23:52:18.603Z,7.50
2018-06-15T23:54:47.476Z,7.20
2018-06-15T23:57:16.167Z,6.90
2018-06-15T23:59:44.886Z,7.50
